createdAt,value
2018-03-22T00:02:22.189Z,68.30
2018-03-22T00:05:45.464Z,69.30
2018-03-22T00:09:08.770Z,69.20
2018-03-22T00:12:32.041Z,69.60
2018-03-22T00:15:55.308Z,69.80
2018-03-22T00:19:18.606Z,69.90
2018-03-22T00:22:41.888Z,70.20
2018-03-22T00:26:05.177Z,70.50
2018-03-22T00:29:28.439Z,70.60
2018-03-22T00:32:51.750Z,71.80
2018-03-22T00:36:15.013Z,71.80
2018-03-22T00:39:38.297Z,71.70
2018-03-22T00:43:01.594Z,72.00
2018-03-22T00:46:24.867Z,71.40
2018-03-22T00:49:49.058Z,72.40
2018-03-22T00:53:12.386Z,72.20
2018-03-22T00:56:35.826Z,72.30
2018-03-22T00:59:59.087Z,72.40
2018-03-22T01:03:22.352Z,72.30
2018-03-22T01:06:46.413Z,72.80
2018-03-22T01:10:09.678Z,72.70
2018-03-22T01:13:32.971Z,73.10
2018-03-22T01:16:56.248Z,73.80
2018-03-22T01:20:19.528Z,73.70
2018-03-22T01:23:42.826Z,73.50
2018-03-22T01:27:06.094Z,73.60
2018-03-22T01:30:37.398Z,73.90
2018-03-22T01:34:00.743Z,74.70
2018-03-22T01:37:24.139Z,74.50
2018-03-22T01:40:47.420Z,74.80
2018-03-22T01:44:11.487Z,74.90
2018-03-22T01:47:34.811Z,74.80
2018-03-22T01:50:58.114Z,73.90
2018-03-22T01:54:21.400Z,74.00
2018-03-22T01:57:44.748Z,73.80
2018-03-22T02:01:08.023Z,74.20
2018-03-22T02:04:32.102Z,74.60
2018-03-22T02:07:55.419Z,74.40
2018-03-22T02:11:18.744Z,74.60
2018-03-22T02:14:42.026Z,74.60
2018-03-22T02:18:05.333Z,74.50
2018-03-22T02:21:28.612Z,74.50
2018-03-22T02:24:51.972Z,74.50
2018-03-22T02:28:15.260Z,74.90
2018-03-22T02:31:38.535Z,74.80
2018-03-22T02:35:01.849Z,75.60
2018-03-22T02:38:25.111Z,74.50
2018-03-22T02:41:48.389Z,74.60
2018-03-22T02:45:11.661Z,75.40
2018-03-22T02:48:34.969Z,75.20
2018-03-22T02:51:58.250Z,75.40
2018-03-22T02:55:21.538Z,75.10
2018-03-22T02:58:44.878Z,75.60
2018-03-22T03:02:08.163Z,75.80
2018-03-22T03:05:31.448Z,75.30
2018-03-22T03:08:54.740Z,75.30
2018-03-22T03:12:18.095Z,75.30
2018-03-22T03:15:41.378Z,75.80
2018-03-22T03:19:04.657Z,74.50
2018-03-22T03:22:27.937Z,74.30
2018-03-22T03:25:51.226Z,74.80
2018-03-22T03:29:14.511Z,75.40
2018-03-22T03:32:37.798Z,75.20
2018-03-22T03:36:01.071Z,75.40
2018-03-22T03:39:24.365Z,75.50
2018-03-22T03:42:47.643Z,75.30
2018-03-22T03:46:10.929Z,75.20
2018-03-22T03:49:34.214Z,75.70
2018-03-22T03:52:57.521Z,76.00
2018-03-22T03:56:20.849Z,75.50
2018-03-22T03:59:44.121Z,76.00
2018-03-22T04:03:08.215Z,76.00
2018-03-22T04:06:31.507Z,75.90
2018-03-22T04:09:54.784Z,76.20
2018-03-22T04:13:18.077Z,75.90
2018-03-22T04:16:42.160Z,75.30
2018-03-22T04:20:05.440Z,75.20
2018-03-22T04:23:28.732Z,74.60
2018-03-22T04:26:52.056Z,74.60
2018-03-22T04:30:15.325Z,74.00
2018-03-22T04:33:38.649Z,74.00
2018-03-22T04:37:01.950Z,74.60
2018-03-22T04:40:25.224Z,74.60
2018-03-22T04:43:48.510Z,75.30
2018-03-22T04:47:11.799Z,74.70
2018-03-22T04:50:35.089Z,74.80
2018-03-22T04:53:58.368Z,75.50
2018-03-22T04:57:21.643Z,74.60
2018-03-22T05:00:44.937Z,75.20
2018-03-22T05:04:08.210Z,75.00
2018-03-22T05:07:31.493Z,74.60
2018-03-22T05:10:55.798Z,74.30
2018-03-22T05:14:19.100Z,74.40
2018-03-22T05:17:42.368Z,74.80
2018-03-22T05:21:05.669Z,75.20
2018-03-22T05:24:29.809Z,74.80
2018-03-22T05:27:53.095Z,75.20
2018-03-22T05:31:16.373Z,76.10
2018-03-22T05:34:39.701Z,76.50
2018-03-22T05:38:03.829Z,76.00
2018-03-22T05:41:27.110Z,75.90
2018-03-22T05:44:50.495Z,76.00
2018-03-22T05:48:14.595Z,75.10
2018-03-22T05:51:38.655Z,74.30
2018-03-22T05:55:02.142Z,74.20
2018-03-22T05:58:25.458Z,74.40
2018-03-22T06:01:49.725Z,74.60
2018-03-22T06:05:13.016Z,74.60
2018-03-22T06:08:36.278Z,74.00
2018-03-22T06:11:59.597Z,74.70
2018-03-22T06:15:22.977Z,74.10
2018-03-22T06:18:46.299Z,75.30
2018-03-22T06:22:12.016Z,74.30
2018-03-22T06:25:36.168Z,73.90
2018-03-22T06:29:00.211Z,75.20
2018-03-22T06:32:24.076Z,75.10
2018-03-22T06:35:47.475Z,74.50
2018-03-22T06:39:12.541Z,74.90
2018-03-22T06:42:35.852Z,74.90
2018-03-22T06:45:59.193Z,75.10
2018-03-22T06:49:22.542Z,70.70
2018-03-22T06:52:45.806Z,70.70
2018-03-22T06:56:09.128Z,71.40
2018-03-22T06:59:33.956Z,72.60
2018-03-22T07:02:58.039Z,70.50
2018-03-22T07:06:22.150Z,71.40
2018-03-22T07:09:45.459Z,71.30
2018-03-22T07:13:08.955Z,70.80
2018-03-22T07:16:34.453Z,70.80
2018-03-22T07:19:58.495Z,71.10
2018-03-22T07:23:21.871Z,71.00
2018-03-22T07:26:45.218Z,71.00
2018-03-22T07:30:08.525Z,70.30
2018-03-22T07:33:31.788Z,69.20
2018-03-22T07:36:55.325Z,69.40
2018-03-22T07:40:19.360Z,70.80
2018-03-22T07:43:43.443Z,70.80
2018-03-22T07:47:06.722Z,70.90
2018-03-22T07:50:30.003Z,70.80
2018-03-22T07:53:53.281Z,70.00
2018-03-22T07:57:17.331Z,70.20
2018-03-22T08:00:40.583Z,70.10
2018-03-22T08:04:03.846Z,69.60
2018-03-22T08:07:27.896Z,69.90
2018-03-22T08:10:51.178Z,69.80
2018-03-22T08:14:15.289Z,71.30
2018-03-22T08:17:39.459Z,67.50
2018-03-22T08:21:03.675Z,67.50
2018-03-22T08:24:27.757Z,66.50
2018-03-22T08:27:51.089Z,65.80
2018-03-22T08:31:14.559Z,65.00
2018-03-22T08:34:38.614Z,64.60
2018-03-22T08:38:02.044Z,64.60
2018-03-22T08:41:26.942Z,64.70
2018-03-22T08:44:50.592Z,64.70
2018-03-22T08:48:13.940Z,65.50
2018-03-22T08:51:37.350Z,63.30
2018-03-22T08:55:00.747Z,62.30
2018-03-22T08:58:24.904Z,61.10
2018-03-22T09:01:48.959Z,60.90
2018-03-22T09:05:12.246Z,60.90
2018-03-22T09:08:35.523Z,60.20
2018-03-22T09:12:00.549Z,59.70
2018-03-22T09:15:23.909Z,59.00
2018-03-22T09:18:48.271Z,58.80
2018-03-22T09:22:12.735Z,56.90
2018-03-22T09:25:36.065Z,56.90
2018-03-22T09:28:59.323Z,57.20
2018-03-22T09:32:23.427Z,54.00
2018-03-22T09:35:47.045Z,53.90
2018-03-22T09:39:10.309Z,55.00
2018-03-22T09:42:33.599Z,53.20
2018-03-22T09:45:58.767Z,52.50
2018-03-22T09:49:25.791Z,51.50
2018-03-22T09:52:50.870Z,51.40
2018-03-22T09:56:14.165Z,51.40
2018-03-22T09:59:37.510Z,49.70
2018-03-22T10:03:00.779Z,50.20
2018-03-22T10:06:24.064Z,48.40
2018-03-22T10:09:52.018Z,48.10
2018-03-22T10:13:15.385Z,47.60
2018-03-22T10:16:38.651Z,43.80
2018-03-22T10:20:01.935Z,45.70
2018-03-22T10:23:25.205Z,44.60
2018-03-22T10:26:49.243Z,44.70
2018-03-22T10:30:12.502Z,44.70
2018-03-22T10:33:35.783Z,41.90
2018-03-22T10:36:59.161Z,40.90
2018-03-22T10:40:22.405Z,40.20
2018-03-22T10:43:46.452Z,39.80
2018-03-22T10:47:09.743Z,39.70
2018-03-22T10:50:33.008Z,38.70
2018-03-22T10:53:56.289Z,38.50
2018-03-22T10:57:19.631Z,39.00
2018-03-22T11:00:49.211Z,39.00
2018-03-22T11:04:12.516Z,38.90
2018-03-22T11:07:36.557Z,36.90
2018-03-22T11:10:59.827Z,36.80
2018-03-22T11:14:23.862Z,35.50
2018-03-22T11:17:47.151Z,35.50
2018-03-22T11:21:10.394Z,34.90
2018-03-22T11:24:34.443Z,34.30
2018-03-22T11:27:57.870Z,34.30
2018-03-22T11:31:21.122Z,33.50
2018-03-22T11:34:45.165Z,33.70
2018-03-22T11:38:08.431Z,33.60
2018-03-22T11:41:31.723Z,33.30
2018-03-22T11:44:55.006Z,32.80
2018-03-22T11:48:18.255Z,30.70
2018-03-22T11:51:42.291Z,29.80
2018-03-22T11:55:05.635Z,30.00
2018-03-22T11:58:29.657Z,30.40
2018-03-22T12:01:52.974Z,30.30
2018-03-22T12:05:16.211Z,29.90
2018-03-22T12:08:40.251Z,30.50
2018-03-22T12:12:03.525Z,30.50
2018-03-22T12:15:30.171Z,29.70
2018-03-22T12:18:53.704Z,29.70
2018-03-22T12:22:17.969Z,29.20
2018-03-22T12:25:42.599Z,29.20
2018-03-22T12:29:05.976Z,29.20
2018-03-22T12:32:31.678Z,29.70
2018-03-22T12:35:55.208Z,29.70
2018-03-22T12:39:18.662Z,30.40
2018-03-22T12:42:42.070Z,31.90
2018-03-22T12:46:06.219Z,34.90
2018-03-22T12:49:29.629Z,34.20
2018-03-22T12:52:53.022Z,32.80
2018-03-22T12:56:17.298Z,35.60
2018-03-22T12:59:40.834Z,35.50
2018-03-22T13:03:05.073Z,37.10
2018-03-22T13:06:29.249Z,37.40
2018-03-22T13:09:52.735Z,37.30
2018-03-22T13:13:16.144Z,36.40
2018-03-22T13:16:40.191Z,36.60
2018-03-22T13:20:03.460Z,36.50
2018-03-22T13:23:26.747Z,37.50
2018-03-22T13:26:50.017Z,36.00
2018-03-22T13:30:14.051Z,31.30
2018-03-22T13:33:37.321Z,31.30
2018-03-22T13:37:00.589Z,31.20
2018-03-22T13:40:24.614Z,30.40
2018-03-22T13:43:47.880Z,30.30
2018-03-22T13:47:11.907Z,28.90
2018-03-22T13:50:35.952Z,29.20
2018-03-22T13:53:59.214Z,29.20
2018-03-22T13:57:22.480Z,29.50
2018-03-22T14:00:46.526Z,30.00
2018-03-22T14:04:09.796Z,30.00
2018-03-22T14:07:33.598Z,30.00
2018-03-22T14:10:56.851Z,30.60
2018-03-22T14:14:20.874Z,31.10
2018-03-22T14:17:44.918Z,31.70
2018-03-22T14:21:08.203Z,31.70
2018-03-22T14:24:31.557Z,31.10
2018-03-22T14:27:54.801Z,31.20
2018-03-22T14:31:18.828Z,31.60
2018-03-22T14:34:42.102Z,31.50
2018-03-22T14:38:06.129Z,31.20
2018-03-22T14:41:30.153Z,31.90
2018-03-22T14:44:53.410Z,31.70
2018-03-22T14:48:17.449Z,32.50
2018-03-22T14:51:40.710Z,32.50
2018-03-22T14:55:04.738Z,33.70
2018-03-22T14:58:28.008Z,33.60
2018-03-22T15:01:52.052Z,33.90
2018-03-22T15:05:15.320Z,33.80
2018-03-22T15:08:38.581Z,34.40
2018-03-22T15:12:02.627Z,34.60
2018-03-22T15:15:25.884Z,34.60
2018-03-22T15:18:49.155Z,34.90
2018-03-22T15:22:13.242Z,37.00
2018-03-22T15:25:36.448Z,36.30
2018-03-22T15:29:00.494Z,39.20
2018-03-22T15:32:23.796Z,39.20
2018-03-22T15:35:47.137Z,45.40
2018-03-22T15:39:10.404Z,50.60
2018-03-22T15:42:33.705Z,53.80
2018-03-22T15:45:56.971Z,55.70
2018-03-22T15:49:20.256Z,57.70
2018-03-22T15:52:43.548Z,58.50
2018-03-22T15:56:07.570Z,59.10
2018-03-22T15:59:30.858Z,58.80
2018-03-22T16:02:54.110Z,59.30
2018-03-22T16:06:18.186Z,60.50
2018-03-22T16:09:41.400Z,60.50
2018-03-22T16:13:05.440Z,60.10
2018-03-22T16:16:28.694Z,60.00
2018-03-22T16:19:52.819Z,59.50
2018-03-22T16:23:16.102Z,59.50
2018-03-22T16:26:39.355Z,59.40
2018-03-22T16:30:03.383Z,57.80
2018-03-22T16:33:26.674Z,57.70
2018-03-22T16:36:49.977Z,58.40
2018-03-22T16:40:14.026Z,57.60
2018-03-22T16:43:39.798Z,56.20
2018-03-22T16:47:03.108Z,56.20
2018-03-22T16:50:26.453Z,56.10
2018-03-22T16:53:49.778Z,54.60
2018-03-22T16:57:13.121Z,54.60
2018-03-22T17:00:37.206Z,55.10
2018-03-22T17:04:01.338Z,54.70
2018-03-22T17:07:24.669Z,54.60
2018-03-22T17:10:48.063Z,53.60
2018-03-22T17:14:12.119Z,53.60
2018-03-22T17:17:35.477Z,53.80
2018-03-22T17:20:59.255Z,54.10
2018-03-22T17:24:32.177Z,55.20
2018-03-22T17:27:55.642Z,54.10
2018-03-22T17:31:18.997Z,54.10
2018-03-22T17:34:42.501Z,54.40
2018-03-22T17:38:05.856Z,54.20
2018-03-22T17:41:29.507Z,53.60
2018-03-22T17:44:52.841Z,53.40
2018-03-22T17:48:17.780Z,54.40
2018-03-22T17:51:41.104Z,54.30
2018-03-22T17:55:04.426Z,53.90
2018-03-22T17:58:27.776Z,53.10
2018-03-22T18:01:51.125Z,53.20
2018-03-22T18:05:14.470Z,54.10
2018-03-22T18:08:42.992Z,54.90
2018-03-22T18:12:06.268Z,54.90
2018-03-22T18:15:29.564Z,54.90
2018-03-22T18:18:54.565Z,55.30
2018-03-22T18:22:17.946Z,55.30
2018-03-22T18:25:43.140Z,55.50
2018-03-22T18:29:06.475Z,56.30
2018-03-22T18:32:29.773Z,56.60
2018-03-22T18:35:53.126Z,57.30
2018-03-22T18:39:16.479Z,57.90
2018-03-22T18:42:39.782Z,56.40
2018-03-22T18:46:04.312Z,57.10
2018-03-22T18:49:27.668Z,57.60
2018-03-22T18:52:51.707Z,58.10
2018-03-22T18:56:15.006Z,58.00
2018-03-22T18:59:38.274Z,58.60
2018-03-22T19:03:01.591Z,59.00
2018-03-22T19:06:24.910Z,59.50
2018-03-22T19:09:48.198Z,59.50
2018-03-22T19:13:11.803Z,59.60
2018-03-22T19:16:35.247Z,60.80
2018-03-22T19:19:58.565Z,60.70
2018-03-22T19:23:21.848Z,62.40
2018-03-22T19:26:45.131Z,60.30
2018-03-22T19:30:08.425Z,61.70
2018-03-22T19:33:31.791Z,61.30
2018-03-22T19:36:55.106Z,61.20
2018-03-22T19:40:19.137Z,63.30
2018-03-22T19:43:42.445Z,62.80
2018-03-22T19:47:05.775Z,63.90
2018-03-22T19:50:29.898Z,67.60
2018-03-22T19:53:53.237Z,67.60
2018-03-22T19:57:16.540Z,70.60
2018-03-22T20:00:39.902Z,69.20
2018-03-22T20:04:03.963Z,71.60
2018-03-22T20:07:27.351Z,71.40
2018-03-22T20:10:51.860Z,72.50
2018-03-22T20:14:17.344Z,73.70
2018-03-22T20:17:41.439Z,76.80
2018-03-22T20:21:09.599Z,78.40
2018-03-22T20:24:33.007Z,78.20
2018-03-22T20:27:58.055Z,78.80
2018-03-22T20:31:22.144Z,80.30
2018-03-22T20:34:45.502Z,80.10
2018-03-22T20:38:08.816Z,81.80
2018-03-22T20:41:32.160Z,82.00
2018-03-22T20:44:55.448Z,82.30
2018-03-22T20:48:18.709Z,83.50
2018-03-22T20:51:42.052Z,83.60
2018-03-22T20:55:06.159Z,83.60
2018-03-22T20:58:29.480Z,83.50
2018-03-22T21:01:52.804Z,83.80
2018-03-22T21:05:16.132Z,83.40
2018-03-22T21:08:40.251Z,84.00
2018-03-22T21:12:03.745Z,84.00
2018-03-22T21:15:27.039Z,81.60
2018-03-22T21:18:50.321Z,80.70
2018-03-22T21:22:13.627Z,79.60
2018-03-22T21:25:36.985Z,80.50
2018-03-22T21:29:00.338Z,81.00
2018-03-22T21:32:23.671Z,79.80
2018-03-22T21:35:47.018Z,80.80
2018-03-22T21:39:10.320Z,83.30
2018-03-22T21:42:33.602Z,83.30
2018-03-22T21:45:56.891Z,81.60
2018-03-22T21:49:20.313Z,82.70
2018-03-22T21:52:57.285Z,78.70
2018-03-22T21:56:20.618Z,79.30
2018-03-22T21:59:43.982Z,81.00
2018-03-22T22:03:07.251Z,82.20
2018-03-22T22:06:30.554Z,82.00
2018-03-22T22:09:53.850Z,82.60
2018-03-22T22:13:17.271Z,83.10
2018-03-22T22:16:40.687Z,83.00
2018-03-22T22:20:04.052Z,82.90
2018-03-22T22:23:27.380Z,82.90
2018-03-22T22:26:51.660Z,83.30
2018-03-22T22:30:14.992Z,83.30
2018-03-22T22:33:38.463Z,83.60
2018-03-22T22:37:03.491Z,82.90
2018-03-22T22:40:27.608Z,81.70
2018-03-22T22:43:50.898Z,81.60
2018-03-22T22:47:14.253Z,81.80
2018-03-22T22:50:37.521Z,81.50
2018-03-22T22:54:00.915Z,79.80
2018-03-22T22:57:24.255Z,81.10
2018-03-22T23:00:47.599Z,80.70
2018-03-22T23:04:10.918Z,80.10
2018-03-22T23:07:34.968Z,80.40
2018-03-22T23:10:58.245Z,80.30
2018-03-22T23:14:21.522Z,80.90
2018-03-22T23:17:45.601Z,81.70
2018-03-22T23:21:08.915Z,81.60
2018-03-22T23:24:32.241Z,81.60
2018-03-22T23:27:56.336Z,81.60
2018-03-22T23:31:20.353Z,82.40
2018-03-22T23:34:43.654Z,82.30
2018-03-22T23:38:06.925Z,81.20
2018-03-22T23:41:30.197Z,82.30
2018-03-22T23:44:53.524Z,83.80
2018-03-22T23:48:16.839Z,83.40
2018-03-22T23:51:40.142Z,83.70
2018-03-22T23:55:03.423Z,81.80
2018-03-22T23:58:26.713Z,82.70
